sensor_id;sensor_type;location;lat;lon;timestamp;pressure;altitude;pressure_sealevel;temperature;humidity
75551;BME280;65071;53.082;18.218;2023-05-29T00:02:23;101579.29;;;10.09;58.30
75551;BME280;65071;53.082;18.218;2023-05-29T00:04:49;101585.00;;;10.05;58.21
75551;BME280;65071;53.082;18.218;2023-05-29T00:07:17;101587.59;;;10.00;58.76
75551;BME280;65071;53.082;18.218;2023-05-29T00:09:43;101587.55;;;9.95;58.27
75551;BME280;65071;53.082;18.218;2023-05-29T00:12:10;101591.05;;;9.91;58.68
75551;BME280;65071;53.082;18.218;2023-05-29T00:14:38;101589.13;;;9.87;59.29
75551;BME280;65071;53.082;18.218;2023-05-29T00:17:04;101583.27;;;9.82;59.62
75551;BME280;65071;53.082;18.218;2023-05-29T00:19:31;101581.34;;;9.77;59.92
75551;BME280;65071;53.082;18.218;2023-05-29T00:21:57;101583.66;;;9.71;61.58
75551;BME280;65071;53.082;18.218;2023-05-29T00:24:24;101588.64;;;9.63;61.47
75551;BME280;65071;53.082;18.218;2023-05-29T00:26:50;101588.25;;;9.57;61.20
75551;BME280;65071;53.082;18.218;2023-05-29T00:29:17;101589.59;;;9.51;60.87
75551;BME280;65071;53.082;18.218;2023-05-29T00:31:43;101591.91;;;9.45;61.19
75551;BME280;65071;53.082;18.218;2023-05-29T00:34:10;101592.58;;;9.39;60.42
75551;BME280;65071;53.082;18.218;2023-05-29T00:36:36;101594.52;;;9.35;60.19
75551;BME280;65071;53.082;18.218;2023-05-29T00:39:04;101593.89;;;9.32;60.46
75551;BME280;65071;53.082;18.218;2023-05-29T00:41:30;101597.04;;;9.28;61.37
75551;BME280;65071;53.082;18.218;2023-05-29T00:43:57;101596.23;;;9.23;61.89
75551;BME280;65071;53.082;18.218;2023-05-29T00:46:24;101594.70;;;9.17;61.26
75551;BME280;65071;53.082;18.218;2023-05-29T00:48:51;101594.98;;;9.14;61.20
75551;BME280;65071;53.082;18.218;2023-05-29T00:51:19;101598.65;;;9.11;61.12
75551;BME280;65071;53.082;18.218;2023-05-29T00:53:48;101602.86;;;9.08;61.31
75551;BME280;65071;53.082;18.218;2023-05-29T00:56:16;101598.04;;;9.05;61.26
75551;BME280;65071;53.082;18.218;2023-05-29T00:58:43;101596.35;;;9.02;61.19
75551;BME280;65071;53.082;18.218;2023-05-29T01:01:10;101595.44;;;9.00;61.56
75551;BME280;65071;53.082;18.218;2023-05-29T01:03:37;101596.09;;;8.96;61.90
75551;BME280;65071;53.082;18.218;2023-05-29T01:06:04;101597.64;;;8.92;61.88
75551;BME280;65071;53.082;18.218;2023-05-29T01:08:31;101599.83;;;8.90;61.42
75551;BME280;65071;53.082;18.218;2023-05-29T01:11:07;101598.35;;;8.88;61.21
75551;BME280;65071;53.082;18.218;2023-05-29T01:13:37;101599.89;;;8.87;62.88
75551;BME280;65071;53.082;18.218;2023-05-29T01:16:15;101598.62;;;8.83;61.90
75551;BME280;65071;53.082;18.218;2023-05-29T01:18:54;101594.66;;;8.81;61.83
75551;BME280;65071;53.082;18.218;2023-05-29T01:24:32;101595.77;;;8.76;62.59
75551;BME280;65071;53.082;18.218;2023-05-29T01:27:05;101600.91;;;8.74;62.16
75551;BME280;65071;53.082;18.218;2023-05-29T01:29:37;101601.66;;;8.73;62.49
75551;BME280;65071;53.082;18.218;2023-05-29T01:32:05;101602.81;;;8.73;62.12
75551;BME280;65071;53.082;18.218;2023-05-29T01:34:32;101598.81;;;8.71;62.10
75551;BME280;65071;53.082;18.218;2023-05-29T01:36:59;101596.04;;;8.69;62.66
75551;BME280;65071;53.082;18.218;2023-05-29T01:39:26;101599.95;;;8.68;62.40
75551;BME280;65071;53.082;18.218;2023-05-29T01:41:53;101597.58;;;8.64;62.81
75551;BME280;65071;53.082;18.218;2023-05-29T01:44:21;101600.95;;;8.62;62.40
75551;BME280;65071;53.082;18.218;2023-05-29T01:46:49;101594.17;;;8.62;62.55
75551;BME280;65071;53.082;18.218;2023-05-29T01:49:16;101596.98;;;8.62;62.51
75551;BME280;65071;53.082;18.218;2023-05-29T01:51:43;101599.34;;;8.62;62.99
75551;BME280;65071;53.082;18.218;2023-05-29T01:54:10;101595.31;;;8.61;62.47
75551;BME280;65071;53.082;18.218;2023-05-29T01:56:38;101597.31;;;8.63;62.40
75551;BME280;65071;53.082;18.218;2023-05-29T01:59:05;101601.21;;;8.63;62.39
75551;BME280;65071;53.082;18.218;2023-05-29T02:01:32;101594.77;;;8.63;62.41
75551;BME280;65071;53.082;18.218;2023-05-29T02:03:59;101594.76;;;8.63;62.27
75551;BME280;65071;53.082;18.218;2023-05-29T02:06:26;101592.77;;;8.63;62.44
75551;BME280;65071;53.082;18.218;2023-05-29T02:08:53;101595.88;;;8.62;62.86
75551;BME280;65071;53.082;18.218;2023-05-29T02:11:19;101593.81;;;8.59;63.36
75551;BME280;65071;53.082;18.218;2023-05-29T02:13:46;101592.94;;;8.55;64.04
75551;BME280;65071;53.082;18.218;2023-05-29T02:16:13;101593.72;;;8.49;63.27
75551;BME280;65071;53.082;18.218;2023-05-29T02:18:40;101598.07;;;8.44;63.27
75551;BME280;65071;53.082;18.218;2023-05-29T02:21:07;101595.17;;;8.40;63.45
75551;BME280;65071;53.082;18.218;2023-05-29T02:23:34;101591.77;;;8.35;63.45
75551;BME280;65071;53.082;18.218;2023-05-29T02:26:01;101592.69;;;8.33;63.37
75551;BME280;65071;53.082;18.218;2023-05-29T02:28:28;101595.50;;;8.31;63.64
75551;BME280;65071;53.082;18.218;2023-05-29T02:30:54;101592.58;;;8.30;64.66
75551;BME280;65071;53.082;18.218;2023-05-29T02:33:21;101593.25;;;8.25;64.65
75551;BME280;65071;53.082;18.218;2023-05-29T02:35:47;101591.61;;;8.21;65.31
75551;BME280;65071;53.082;18.218;2023-05-29T02:38:14;101593.88;;;8.15;65.19
75551;BME280;65071;53.082;18.218;2023-05-29T02:40:41;101594.60;;;8.10;65.50
75551;BME280;65071;53.082;18.218;2023-05-29T02:43:09;101596.59;;;8.05;65.02
75551;BME280;65071;53.082;18.218;2023-05-29T02:45:35;101591.17;;;8.01;65.57
75551;BME280;65071;53.082;18.218;2023-05-29T02:48:02;101593.95;;;7.97;65.76
75551;BME280;65071;53.082;18.218;2023-05-29T02:50:30;101596.91;;;7.94;66.90
75551;BME280;65071;53.082;18.218;2023-05-29T02:52:56;101597.59;;;7.92;65.75
75551;BME280;65071;53.082;18.218;2023-05-29T02:55:23;101596.07;;;7.91;65.94
75551;BME280;65071;53.082;18.218;2023-05-29T02:57:49;101600.20;;;7.91;66.03
75551;BME280;65071;53.082;18.218;2023-05-29T03:00:19;101596.52;;;7.92;65.74
75551;BME280;65071;53.082;18.218;2023-05-29T03:02:47;101591.84;;;7.97;65.27
75551;BME280;65071;53.082;18.218;2023-05-29T03:05:13;101596.64;;;8.05;65.72
75551;BME280;65071;53.082;18.218;2023-05-29T03:07:40;101595.16;;;8.12;66.61
75551;BME280;65071;53.082;18.218;2023-05-29T03:10:09;101593.17;;;8.19;66.41
75551;BME280;65071;53.082;18.218;2023-05-29T03:12:36;101593.35;;;8.29;66.09
75551;BME280;65071;53.082;18.218;2023-05-29T03:15:03;101592.12;;;8.42;66.13
75551;BME280;65071;53.082;18.218;2023-05-29T03:17:30;101593.12;;;8.57;65.92
75551;BME280;65071;53.082;18.218;2023-05-29T03:19:57;101592.96;;;8.75;65.66
75551;BME280;65071;53.082;18.218;2023-05-29T03:22:24;101595.00;;;8.94;65.53
75551;BME280;65071;53.082;18.218;2023-05-29T03:24:50;101597.40;;;9.13;65.60
75551;BME280;65071;53.082;18.218;2023-05-29T03:27:17;101603.20;;;9.34;64.99
75551;BME280;65071;53.082;18.218;2023-05-29T03:29:43;101600.42;;;9.57;65.60
75551;BME280;65071;53.082;18.218;2023-05-29T03:32:10;101605.54;;;9.80;65.00
75551;BME280;65071;53.082;18.218;2023-05-29T03:34:36;101604.53;;;10.00;65.05
75551;BME280;65071;53.082;18.218;2023-05-29T03:37:04;101599.73;;;10.23;64.07
75551;BME280;65071;53.082;18.218;2023-05-29T03:39:30;101597.16;;;10.44;63.96
75551;BME280;65071;53.082;18.218;2023-05-29T03:41:57;101601.33;;;10.68;63.37
75551;BME280;65071;53.082;18.218;2023-05-29T03:44:24;101600.98;;;10.93;62.81
75551;BME280;65071;53.082;18.218;2023-05-29T03:46:51;101602.73;;;11.17;62.62
75551;BME280;65071;53.082;18.218;2023-05-29T03:49:17;101605.95;;;11.41;62.52
75551;BME280;65071;53.082;18.218;2023-05-29T03:51:44;101603.90;;;11.66;62.19
75551;BME280;65071;53.082;18.218;2023-05-29T03:54:10;101603.58;;;11.91;61.99
75551;BME280;65071;53.082;18.218;2023-05-29T03:56:37;101606.79;;;12.17;61.79
75551;BME280;65071;53.082;18.218;2023-05-29T03:59:04;101601.23;;;12.41;61.35
75551;BME280;65071;53.082;18.218;2023-05-29T04:01:31;101605.80;;;12.63;60.77
75551;BME280;65071;53.082;18.218;2023-05-29T04:03:57;101603.96;;;12.86;60.17
75551;BME280;65071;53.082;18.218;2023-05-29T04:06:24;101608.13;;;13.12;59.74
75551;BME280;65071;53.082;18.218;2023-05-29T04:08:50;101615.20;;;13.41;59.08
75551;BME280;65071;53.082;18.218;2023-05-29T04:11:17;101615.66;;;13.79;58.07
75551;BME280;65071;53.082;18.218;2023-05-29T04:13:47;101615.85;;;14.43;57.17
75551;BME280;65071;53.082;18.218;2023-05-29T04:16:15;101613.94;;;14.79;56.28
75551;BME280;65071;53.082;18.218;2023-05-29T04:18:42;101619.60;;;14.87;55.62
75551;BME280;65071;53.082;18.218;2023-05-29T04:21:08;101620.13;;;14.96;55.70
75551;BME280;65071;53.082;18.218;2023-05-29T04:23:35;101611.95;;;15.10;55.69
75551;BME280;65071;53.082;18.218;2023-05-29T04:26:02;101616.98;;;15.59;54.55
75551;BME280;65071;53.082;18.218;2023-05-29T04:28:29;101618.64;;;16.34;53.19
75551;BME280;65071;53.082;18.218;2023-05-29T04:30:56;101614.83;;;17.54;50.79
75551;BME280;65071;53.082;18.218;2023-05-29T04:33:23;101604.54;;;18.79;47.89
75551;BME280;65071;53.082;18.218;2023-05-29T04:35:51;101604.25;;;19.51;45.39
75551;BME280;65071;53.082;18.218;2023-05-29T04:38:19;101608.11;;;19.78;45.49
75551;BME280;65071;53.082;18.218;2023-05-29T04:40:51;101610.92;;;20.02;46.38
75551;BME280;65071;53.082;18.218;2023-05-29T04:43:18;101607.41;;;20.09;45.29
75551;BME280;65071;53.082;18.218;2023-05-29T04:45:56;101606.84;;;19.81;45.42
75551;BME280;65071;53.082;18.218;2023-05-29T04:48:23;101607.05;;;19.52;46.40
75551;BME280;65071;53.082;18.218;2023-05-29T04:50:49;101604.00;;;19.28;46.94
75551;BME280;65071;53.082;18.218;2023-05-29T04:53:16;101602.77;;;19.16;46.89
75551;BME280;65071;53.082;18.218;2023-05-29T04:55:43;101601.31;;;19.07;46.70
75551;BME280;65071;53.082;18.218;2023-05-29T04:58:09;101601.41;;;18.96;46.80
75551;BME280;65071;53.082;18.218;2023-05-29T05:00:38;101602.30;;;18.78;46.78
75551;BME280;65071;53.082;18.218;2023-05-29T05:03:05;101595.77;;;18.65;46.89
75551;BME280;65071;53.082;18.218;2023-05-29T05:05:31;101591.95;;;18.65;46.82
75551;BME280;65071;53.082;18.218;2023-05-29T05:07:59;101595.83;;;18.69;47.27
75551;BME280;65071;53.082;18.218;2023-05-29T05:10:27;101596.14;;;18.77;47.59
75551;BME280;65071;53.082;18.218;2023-05-29T05:12:54;101602.86;;;18.74;46.96
75551;BME280;65071;53.082;18.218;2023-05-29T05:15:25;101600.30;;;18.79;46.69
75551;BME280;65071;53.082;18.218;2023-05-29T05:17:51;101600.19;;;18.85;46.55
75551;BME280;65071;53.082;18.218;2023-05-29T05:20:18;101601.17;;;18.92;46.57
75551;BME280;65071;53.082;18.218;2023-05-29T05:22:46;101603.03;;;19.03;46.34
75551;BME280;65071;53.082;18.218;2023-05-29T05:25:13;101606.23;;;19.11;46.11
75551;BME280;65071;53.082;18.218;2023-05-29T05:27:40;101609.89;;;19.22;46.56
75551;BME280;65071;53.082;18.218;2023-05-29T05:30:07;101607.19;;;19.21;45.93
75551;BME280;65071;53.082;18.218;2023-05-29T05:32:37;101606.02;;;19.20;45.94
75551;BME280;65071;53.082;18.218;2023-05-29T05:35:07;101609.54;;;19.30;45.76
75551;BME280;65071;53.082;18.218;2023-05-29T05:37:37;101612.62;;;19.39;45.50
75551;BME280;65071;53.082;18.218;2023-05-29T05:40:06;101614.05;;;19.50;45.09
75551;BME280;65071;53.082;18.218;2023-05-29T05:42:34;101615.36;;;19.56;45.10
75551;BME280;65071;53.082;18.218;2023-05-29T05:45:05;101613.86;;;19.67;45.03
75551;BME280;65071;53.082;18.218;2023-05-29T05:47:33;101614.37;;;19.84;44.13
75551;BME280;65071;53.082;18.218;2023-05-29T05:49:59;101616.53;;;19.99;43.89
75551;BME280;65071;53.082;18.218;2023-05-29T05:52:26;101625.55;;;20.10;42.83
75551;BME280;65071;53.082;18.218;2023-05-29T05:54:57;101625.97;;;20.13;43.41
75551;BME280;65071;53.082;18.218;2023-05-29T05:57:24;101629.58;;;20.19;43.24
75551;BME280;65071;53.082;18.218;2023-05-29T05:59:54;101628.64;;;20.27;42.97
75551;BME280;65071;53.082;18.218;2023-05-29T06:02:22;101629.16;;;20.37;42.90
75551;BME280;65071;53.082;18.218;2023-05-29T06:04:49;101632.42;;;20.42;42.75
75551;BME280;65071;53.082;18.218;2023-05-29T06:07:16;101642.67;;;20.42;41.83
75551;BME280;65071;53.082;18.218;2023-05-29T06:09:43;101639.13;;;20.47;42.17
75551;BME280;65071;53.082;18.218;2023-05-29T06:12:11;101637.20;;;20.52;42.27
75551;BME280;65071;53.082;18.218;2023-05-29T06:14:44;101640.31;;;20.65;42.05
75551;BME280;65071;53.082;18.218;2023-05-29T06:17:11;101639.04;;;20.72;41.03
75551;BME280;65071;53.082;18.218;2023-05-29T06:19:38;101638.70;;;20.81;40.96
75551;BME280;65071;53.082;18.218;2023-05-29T06:22:05;101638.39;;;20.81;39.75
75551;BME280;65071;53.082;18.218;2023-05-29T06:24:31;101639.27;;;20.85;39.79
75551;BME280;65071;53.082;18.218;2023-05-29T06:30:00;101623.38;;;20.81;38.85
75551;BME280;65071;53.082;18.218;2023-05-29T06:32:28;101624.04;;;20.95;39.10
75551;BME280;65071;53.082;18.218;2023-05-29T06:34:56;101617.91;;;21.13;38.26
75551;BME280;65071;53.082;18.218;2023-05-29T06:37:23;101618.02;;;21.19;37.42
75551;BME280;65071;53.082;18.218;2023-05-29T06:39:49;101616.52;;;21.19;36.29
75551;BME280;65071;53.082;18.218;2023-05-29T06:42:16;101619.41;;;21.30;37.50
75551;BME280;65071;53.082;18.218;2023-05-29T06:44:43;101624.69;;;21.45;37.73
75551;BME280;65071;53.082;18.218;2023-05-29T06:47:09;101626.60;;;21.60;37.51
75551;BME280;65071;53.082;18.218;2023-05-29T06:49:39;101627.16;;;21.72;36.87
75551;BME280;65071;53.082;18.218;2023-05-29T06:52:06;101629.27;;;21.78;36.87
75551;BME280;65071;53.082;18.218;2023-05-29T06:54:59;101626.91;;;21.63;36.47
75551;BME280;65071;53.082;18.218;2023-05-29T06:57:26;101628.27;;;21.75;36.97
75551;BME280;65071;53.082;18.218;2023-05-29T06:59:53;101630.51;;;21.87;36.74
75551;BME280;65071;53.082;18.218;2023-05-29T07:02:20;101634.48;;;21.98;36.62
75551;BME280;65071;53.082;18.218;2023-05-29T07:04:51;101633.94;;;22.09;36.82
75551;BME280;65071;53.082;18.218;2023-05-29T07:07:18;101629.77;;;22.20;36.56
75551;BME280;65071;53.082;18.218;2023-05-29T07:09:46;101631.02;;;22.30;36.79
75551;BME280;65071;53.082;18.218;2023-05-29T07:12:13;101630.95;;;22.18;36.52
75551;BME280;65071;53.082;18.218;2023-05-29T07:14:40;101628.70;;;22.31;36.63
75551;BME280;65071;53.082;18.218;2023-05-29T07:17:07;101630.20;;;22.40;36.79
75551;BME280;65071;53.082;18.218;2023-05-29T07:19:34;101636.87;;;22.51;36.63
75551;BME280;65071;53.082;18.218;2023-05-29T07:22:01;101638.43;;;22.57;36.93
75551;BME280;65071;53.082;18.218;2023-05-29T07:24:28;101637.59;;;22.69;37.01
75551;BME280;65071;53.082;18.218;2023-05-29T07:26:56;101638.65;;;22.70;36.60
75551;BME280;65071;53.082;18.218;2023-05-29T07:29:23;101638.69;;;22.78;37.05
75551;BME280;65071;53.082;18.218;2023-05-29T07:31:51;101643.65;;;22.91;36.72
75551;BME280;65071;53.082;18.218;2023-05-29T07:34:19;101647.16;;;22.96;36.47
75551;BME280;65071;53.082;18.218;2023-05-29T07:37:01;101646.81;;;23.05;36.23
75551;BME280;65071;53.082;18.218;2023-05-29T07:39:31;101648.55;;;23.11;36.31
75551;BME280;65071;53.082;18.218;2023-05-29T07:42:00;101647.58;;;22.96;36.43
75551;BME280;65071;53.082;18.218;2023-05-29T07:44:28;101653.77;;;22.88;36.53
75551;BME280;65071;53.082;18.218;2023-05-29T07:46:55;101656.98;;;22.78;35.75
75551;BME280;65071;53.082;18.218;2023-05-29T07:49:43;101658.05;;;22.61;35.67
75551;BME280;65071;53.082;18.218;2023-05-29T07:52:10;101657.35;;;22.56;36.34
75551;BME280;65071;53.082;18.218;2023-05-29T07:54:37;101659.97;;;22.55;36.54
75551;BME280;65071;53.082;18.218;2023-05-29T07:57:08;101663.20;;;22.58;36.45
75551;BME280;65071;53.082;18.218;2023-05-29T07:59:39;101663.73;;;22.62;36.60
75551;BME280;65071;53.082;18.218;2023-05-29T08:02:08;101662.41;;;22.59;36.88
75551;BME280;65071;53.082;18.218;2023-05-29T08:04:44;101661.95;;;22.62;36.84
75551;BME280;65071;53.082;18.218;2023-05-29T08:07:11;101667.84;;;22.54;36.86
75551;BME280;65071;53.082;18.218;2023-05-29T08:09:38;101662.31;;;22.45;37.15
75551;BME280;65071;53.082;18.218;2023-05-29T08:12:04;101669.10;;;22.49;37.25
75551;BME280;65071;53.082;18.218;2023-05-29T08:14:32;101669.81;;;22.48;37.03
75551;BME280;65071;53.082;18.218;2023-05-29T08:17:01;101670.73;;;22.40;37.34
75551;BME280;65071;53.082;18.218;2023-05-29T08:19:28;101666.08;;;22.44;37.55
75551;BME280;65071;53.082;18.218;2023-05-29T08:21:55;101669.46;;;22.47;37.58
75551;BME280;65071;53.082;18.218;2023-05-29T08:24:21;101674.17;;;22.47;37.22
75551;BME280;65071;53.082;18.218;2023-05-29T08:26:48;101675.23;;;22.49;37.12
75551;BME280;65071;53.082;18.218;2023-05-29T08:29:17;101672.54;;;22.53;37.01
75551;BME280;65071;53.082;18.218;2023-05-29T08:31:43;101677.45;;;22.55;37.44
75551;BME280;65071;53.082;18.218;2023-05-29T08:34:10;101675.23;;;22.47;37.15
75551;BME280;65071;53.082;18.218;2023-05-29T08:36:36;101675.04;;;22.53;37.38
75551;BME280;65071;53.082;18.218;2023-05-29T08:39:03;101677.13;;;22.71;37.28
75551;BME280;65071;53.082;18.218;2023-05-29T08:44:55;101680.47;;;22.83;37.00
75551;BME280;65071;53.082;18.218;2023-05-29T09:10:15;101672.86;;;22.88;36.31
75551;BME280;65071;53.082;18.218;2023-05-29T09:30:09;101676.61;;;23.36;35.73
75551;BME280;65071;53.082;18.218;2023-05-29T09:32:35;101679.52;;;23.54;35.39
75551;BME280;65071;53.082;18.218;2023-05-29T09:35:02;101676.20;;;23.76;35.16
75551;BME280;65071;53.082;18.218;2023-05-29T09:37:29;101675.67;;;23.95;34.96
75551;BME280;65071;53.082;18.218;2023-05-29T09:39:58;101675.61;;;24.05;34.69
75551;BME280;65071;53.082;18.218;2023-05-29T09:42:30;101676.15;;;24.09;34.85
75551;BME280;65071;53.082;18.218;2023-05-29T09:44:59;101671.73;;;23.93;34.12
75551;BME280;65071;53.082;18.218;2023-05-29T09:47:32;101665.39;;;23.90;34.38
75551;BME280;65071;53.082;18.218;2023-05-29T09:50:00;101662.73;;;24.01;34.46
75551;BME280;65071;53.082;18.218;2023-05-29T09:52:29;101659.05;;;24.11;34.18
75551;BME280;65071;53.082;18.218;2023-05-29T09:54:56;101658.52;;;24.15;34.20
75551;BME280;65071;53.082;18.218;2023-05-29T09:57:24;101654.95;;;24.01;34.08
75551;BME280;65071;53.082;18.218;2023-05-29T09:59:52;101662.12;;;23.99;34.40
75551;BME280;65071;53.082;18.218;2023-05-29T10:02:19;101656.70;;;24.15;33.70
75551;BME280;65071;53.082;18.218;2023-05-29T10:04:45;101653.48;;;24.27;33.86
75551;BME280;65071;53.082;18.218;2023-05-29T10:07:29;101652.30;;;24.49;33.45
75551;BME280;65071;53.082;18.218;2023-05-29T10:09:59;101657.45;;;24.79;33.00
75551;BME280;65071;53.082;18.218;2023-05-29T10:12:28;101655.77;;;25.04;33.29
75551;BME280;65071;53.082;18.218;2023-05-29T10:35:44;101654.92;;;23.78;34.13
75551;BME280;65071;53.082;18.218;2023-05-29T10:38:14;101652.77;;;23.84;34.27
75551;BME280;65071;53.082;18.218;2023-05-29T10:40:43;101652.91;;;23.93;33.93
75551;BME280;65071;53.082;18.218;2023-05-29T10:43:32;101653.05;;;23.90;33.75
75551;BME280;65071;53.082;18.218;2023-05-29T10:46:00;101651.92;;;23.94;33.60
75551;BME280;65071;53.082;18.218;2023-05-29T10:50:57;101652.80;;;24.00;33.09
75551;BME280;65071;53.082;18.218;2023-05-29T10:53:25;101646.20;;;24.10;33.23
75551;BME280;65071;53.082;18.218;2023-05-29T10:55:53;101641.48;;;24.26;32.78
75551;BME280;65071;53.082;18.218;2023-05-29T10:58:24;101639.95;;;24.40;32.59
75551;BME280;65071;53.082;18.218;2023-05-29T11:00:54;101639.05;;;24.61;32.58
75551;BME280;65071;53.082;18.218;2023-05-29T11:03:29;101632.77;;;24.81;31.76
75551;BME280;65071;53.082;18.218;2023-05-29T11:06:01;101633.48;;;24.96;31.39
75551;BME280;65071;53.082;18.218;2023-05-29T11:08:43;101629.20;;;25.05;31.64
75551;BME280;65071;53.082;18.218;2023-05-29T11:11:29;101629.38;;;25.02;31.50
75551;BME280;65071;53.082;18.218;2023-05-29T11:14:01;101629.90;;;25.07;31.62
75551;BME280;65071;53.082;18.218;2023-05-29T11:19:04;101630.05;;;25.28;31.21
75551;BME280;65071;53.082;18.218;2023-05-29T11:24:22;101623.98;;;25.22;30.33
75551;BME280;65071;53.082;18.218;2023-05-29T11:26:55;101623.06;;;25.11;30.77
75551;BME280;65071;53.082;18.218;2023-05-29T11:29:23;101624.36;;;24.91;30.78
75551;BME280;65071;53.082;18.218;2023-05-29T11:32:06;101626.21;;;24.77;30.41
75551;BME280;65071;53.082;18.218;2023-05-29T11:34:40;101618.41;;;24.67;30.47
75551;BME280;65071;53.082;18.218;2023-05-29T11:37:08;101622.08;;;24.61;30.51
75551;BME280;65071;53.082;18.218;2023-05-29T11:39:38;101613.20;;;24.53;29.97
75551;BME280;65071;53.082;18.218;2023-05-29T11:42:05;101611.00;;;24.42;30.02
75551;BME280;65071;53.082;18.218;2023-05-29T11:44:33;101611.61;;;24.39;30.09
75551;BME280;65071;53.082;18.218;2023-05-29T11:47:07;101606.66;;;24.49;30.27
75551;BME280;65071;53.082;18.218;2023-05-29T11:49:35;101606.18;;;24.67;29.70
75551;BME280;65071;53.082;18.218;2023-05-29T11:52:10;101610.71;;;24.75;30.46
75551;BME280;65071;53.082;18.218;2023-05-29T11:54:37;101615.44;;;24.82;30.42
75551;BME280;65071;53.082;18.218;2023-05-29T11:57:03;101613.61;;;24.82;30.04
75551;BME280;65071;53.082;18.218;2023-05-29T11:59:33;101609.84;;;24.73;30.24
75551;BME280;65071;53.082;18.218;2023-05-29T12:02:03;101607.16;;;24.85;30.01
75551;BME280;65071;53.082;18.218;2023-05-29T12:04:30;101602.35;;;24.90;29.75
75551;BME280;65071;53.082;18.218;2023-05-29T12:06:57;101602.95;;;24.81;29.48
75551;BME280;65071;53.082;18.218;2023-05-29T12:09:25;101602.71;;;24.84;29.38
75551;BME280;65071;53.082;18.218;2023-05-29T12:12:02;101598.44;;;24.77;29.09
75551;BME280;65071;53.082;18.218;2023-05-29T12:14:29;101595.72;;;24.86;29.40
75551;BME280;65071;53.082;18.218;2023-05-29T12:16:56;101593.41;;;24.76;28.62
75551;BME280;65071;53.082;18.218;2023-05-29T12:19:23;101591.86;;;24.76;28.43
75551;BME280;65071;53.082;18.218;2023-05-29T12:21:54;101589.35;;;24.82;28.66
75551;BME280;65071;53.082;18.218;2023-05-29T12:24:47;101594.77;;;24.78;28.62
75551;BME280;65071;53.082;18.218;2023-05-29T12:27:25;101587.44;;;24.77;28.44
75551;BME280;65071;53.082;18.218;2023-05-29T12:30:01;101585.07;;;24.75;28.34
75551;BME280;65071;53.082;18.218;2023-05-29T12:32:47;101581.67;;;24.75;28.65
75551;BME280;65071;53.082;18.218;2023-05-29T12:35:19;101585.00;;;24.78;28.57
75551;BME280;65071;53.082;18.218;2023-05-29T12:37:56;101584.25;;;24.60;29.14
75551;BME280;65071;53.082;18.218;2023-05-29T12:40:25;101585.94;;;24.45;29.10
75551;BME280;65071;53.082;18.218;2023-05-29T12:43:06;101588.73;;;24.51;29.53
75551;BME280;65071;53.082;18.218;2023-05-29T12:45:41;101586.70;;;24.56;29.17
75551;BME280;65071;53.082;18.218;2023-05-29T12:48:10;101581.55;;;24.56;29.11
75551;BME280;65071;53.082;18.218;2023-05-29T12:50:38;101582.58;;;24.51;29.43
75551;BME280;65071;53.082;18.218;2023-05-29T12:53:12;101585.66;;;24.45;28.97
75551;BME280;65071;53.082;18.218;2023-05-29T12:55:50;101577.06;;;24.39;29.04
75551;BME280;65071;53.082;18.218;2023-05-29T12:58:37;101578.56;;;24.44;29.53
75551;BME280;65071;53.082;18.218;2023-05-29T13:01:03;101576.97;;;24.40;30.01
75551;BME280;65071;53.082;18.218;2023-05-29T13:03:30;101578.89;;;24.44;29.86
75551;BME280;65071;53.082;18.218;2023-05-29T13:05:57;101576.48;;;24.38;29.72
75551;BME280;65071;53.082;18.218;2023-05-29T13:08:26;101577.20;;;24.39;29.55
75551;BME280;65071;53.082;18.218;2023-05-29T13:10:55;101572.67;;;24.36;29.71
75551;BME280;65071;53.082;18.218;2023-05-29T13:13:23;101574.75;;;24.29;29.45
75551;BME280;65071;53.082;18.218;2023-05-29T13:15:52;101568.95;;;24.20;29.46
75551;BME280;65071;53.082;18.218;2023-05-29T13:18:18;101571.26;;;24.13;29.54
75551;BME280;65071;53.082;18.218;2023-05-29T13:20:45;101572.41;;;24.16;29.72
75551;BME280;65071;53.082;18.218;2023-05-29T13:23:11;101568.80;;;24.18;29.22
75551;BME280;65071;53.082;18.218;2023-05-29T13:25:38;101566.36;;;24.21;29.11
75551;BME280;65071;53.082;18.218;2023-05-29T13:28:05;101564.50;;;24.23;28.54
75551;BME280;65071;53.082;18.218;2023-05-29T13:30:31;101561.70;;;24.32;28.09
75551;BME280;65071;53.082;18.218;2023-05-29T13:32:58;101562.99;;;24.35;28.22
75551;BME280;65071;53.082;18.218;2023-05-29T13:35:24;101559.77;;;24.41;27.93
75551;BME280;65071;53.082;18.218;2023-05-29T13:37:51;101560.16;;;24.40;27.88
75551;BME280;65071;53.082;18.218;2023-05-29T13:40:17;101556.29;;;24.36;27.77
75551;BME280;65071;53.082;18.218;2023-05-29T13:42:44;101556.13;;;24.36;27.90
75551;BME280;65071;53.082;18.218;2023-05-29T13:45:10;101555.63;;;24.39;28.17
75551;BME280;65071;53.082;18.218;2023-05-29T13:47:38;101551.30;;;24.39;28.01
75551;BME280;65071;53.082;18.218;2023-05-29T13:50:05;101553.83;;;24.42;28.14
75551;BME280;65071;53.082;18.218;2023-05-29T13:52:33;101550.93;;;24.43;27.76
75551;BME280;65071;53.082;18.218;2023-05-29T13:54:59;101554.95;;;24.48;27.60
75551;BME280;65071;53.082;18.218;2023-05-29T13:57:30;101556.94;;;24.51;27.56
75551;BME280;65071;53.082;18.218;2023-05-29T13:59:57;101555.91;;;24.57;27.23
75551;BME280;65071;53.082;18.218;2023-05-29T14:02:24;101556.83;;;24.64;27.13
75551;BME280;65071;53.082;18.218;2023-05-29T14:04:51;101557.46;;;24.59;27.16
75551;BME280;65071;53.082;18.218;2023-05-29T14:07:18;101557.58;;;24.50;27.32
75551;BME280;65071;53.082;18.218;2023-05-29T14:09:44;101555.34;;;24.49;27.38